sensor_id;sensor_type;location;lat;lon;timestamp;pressure;altitude;pressure_sealevel;temperature;humidity
25944;BME280;13742;49.306;8.636;2022-12-29T00:00:26;99986.38;;;8.44;84.40
25944;BME280;13742;49.306;8.636;2022-12-29T00:01:26;99987.63;;;8.43;84.47
25944;BME280;13742;49.306;8.636;2022-12-29T00:02:26;99990.17;;;8.44;84.50
25944;BME280;13742;49.306;8.636;2022-12-29T00:03:26;99986.69;;;8.43;84.65
25944;BME280;13742;49.306;8.636;2022-12-29T00:04:26;99986.39;;;8.43;84.83
25944;BME280;13742;49.306;8.636;2022-12-29T00:05:26;99985.05;;;8.43;84.94
25944;BME280;13742;49.306;8.636;2022-12-29T00:06:26;99984.83;;;8.44;84.92
25944;BME280;13742;49.306;8.636;2022-12-29T00:07:26;99983.31;;;8.44;84.77
25944;BME280;13742;49.306;8.636;2022-12-29T00:08:31;99986.55;;;8.46;84.74
25944;BME280;13742;49.306;8.636;2022-12-29T00:09:26;99980.63;;;8.46;84.78
25944;BME280;13742;49.306;8.636;2022-12-29T00:10:26;99983.99;;;8.47;84.72
25944;BME280;13742;49.306;8.636;2022-12-29T00:11:26;99980.32;;;8.47;84.66
25944;BME280;13742;49.306;8.636;2022-12-29T00:12:41;99981.55;;;8.48;84.69
25944;BME280;13742;49.306;8.636;2022-12-29T00:13:42;99980.16;;;8.47;84.65
25944;BME280;13742;49.306;8.636;2022-12-29T00:14:31;99979.53;;;8.48;84.83
25944;BME280;13742;49.306;8.636;2022-12-29T00:15:31;99979.03;;;8.48;85.06
25944;BME280;13742;49.306;8.636;2022-12-29T00:16:27;99977.80;;;8.49;84.95
25944;BME280;13742;49.306;8.636;2022-12-29T00:17:26;99976.89;;;8.50;84.99
25944;BME280;13742;49.306;8.636;2022-12-29T00:18:26;99983.22;;;8.49;84.91
25944;BME280;13742;49.306;8.636;2022-12-29T00:19:31;99975.73;;;8.50;84.96
25944;BME280;13742;49.306;8.636;2022-12-29T00:20:35;99973.77;;;8.50;85.05
25944;BME280;13742;49.306;8.636;2022-12-29T00:21:31;99973.31;;;8.52;85.01
25944;BME280;13742;49.306;8.636;2022-12-29T00:22:31;99975.16;;;8.51;84.95
25944;BME280;13742;49.306;8.636;2022-12-29T00:23:31;99976.94;;;8.52;85.04
25944;BME280;13742;49.306;8.636;2022-12-29T00:24:43;99972.77;;;8.52;85.14
25944;BME280;13742;49.306;8.636;2022-12-29T00:25:31;99972.11;;;8.52;85.06
25944;BME280;13742;49.306;8.636;2022-12-29T00:26:31;99977.20;;;8.54;85.25
25944;BME280;13742;49.306;8.636;2022-12-29T00:27:31;99974.93;;;8.53;85.06
25944;BME280;13742;49.306;8.636;2022-12-29T00:28:31;99975.56;;;8.54;85.15
25944;BME280;13742;49.306;8.636;2022-12-29T00:29:31;99973.48;;;8.54;85.13
25944;BME280;13742;49.306;8.636;2022-12-29T00:30:31;99971.03;;;8.55;85.21
25944;BME280;13742;49.306;8.636;2022-12-29T00:31:31;99974.30;;;8.54;85.17
25944;BME280;13742;49.306;8.636;2022-12-29T00:32:31;99976.38;;;8.56;85.24
25944;BME280;13742;49.306;8.636;2022-12-29T00:33:32;99976.52;;;8.56;85.31
25944;BME280;13742;49.306;8.636;2022-12-29T00:34:31;99977.91;;;8.56;85.42
25944;BME280;13742;49.306;8.636;2022-12-29T00:35:28;99975.74;;;8.57;85.40
25944;BME280;13742;49.306;8.636;2022-12-29T00:37:42;99974.21;;;8.57;85.48
25944;BME280;13742;49.306;8.636;2022-12-29T00:38:32;99971.66;;;8.57;85.34
25944;BME280;13742;49.306;8.636;2022-12-29T00:39:31;99977.83;;;8.59;85.27
25944;BME280;13742;49.306;8.636;2022-12-29T00:40:31;99976.37;;;8.60;85.11
25944;BME280;13742;49.306;8.636;2022-12-29T00:41:31;99975.73;;;8.61;85.09
25944;BME280;13742;49.306;8.636;2022-12-29T00:42:31;99975.21;;;8.62;85.15
25944;BME280;13742;49.306;8.636;2022-12-29T00:43:31;99973.20;;;8.62;85.06
25944;BME280;13742;49.306;8.636;2022-12-29T00:44:26;99978.31;;;8.62;85.00
25944;BME280;13742;49.306;8.636;2022-12-29T00:45:26;99974.63;;;8.63;85.00
25944;BME280;13742;49.306;8.636;2022-12-29T00:46:26;99978.69;;;8.64;85.11
25944;BME280;13742;49.306;8.636;2022-12-29T00:47:26;99974.19;;;8.64;85.12
25944;BME280;13742;49.306;8.636;2022-12-29T00:48:31;99974.66;;;8.66;85.10
25944;BME280;13742;49.306;8.636;2022-12-29T00:49:32;99975.36;;;8.68;85.08
25944;BME280;13742;49.306;8.636;2022-12-29T00:50:26;99975.10;;;8.71;85.24
25944;BME280;13742;49.306;8.636;2022-12-29T00:51:26;99980.12;;;8.71;85.06
25944;BME280;13742;49.306;8.636;2022-12-29T00:52:26;99979.88;;;8.73;85.14
25944;BME280;13742;49.306;8.636;2022-12-29T00:53:26;99974.33;;;8.72;85.19
25944;BME280;13742;49.306;8.636;2022-12-29T00:54:27;99977.67;;;8.74;85.24
25944;BME280;13742;49.306;8.636;2022-12-29T00:55:26;99977.14;;;8.75;85.28
25944;BME280;13742;49.306;8.636;2022-12-29T00:56:26;99976.89;;;8.76;85.26
25944;BME280;13742;49.306;8.636;2022-12-29T00:57:26;99975.38;;;8.77;85.29
25944;BME280;13742;49.306;8.636;2022-12-29T00:58:30;99986.08;;;8.79;85.25
25944;BME280;13742;49.306;8.636;2022-12-29T00:59:26;99982.77;;;8.81;85.13
25944;BME280;13742;49.306;8.636;2022-12-29T01:00:26;99987.16;;;8.81;85.14
25944;BME280;13742;49.306;8.636;2022-12-29T01:01:26;99983.25;;;8.85;85.25
25944;BME280;13742;49.306;8.636;2022-12-29T01:02:26;99988.41;;;8.84;85.04
25944;BME280;13742;49.306;8.636;2022-12-29T01:03:26;99988.86;;;8.85;85.10
25944;BME280;13742;49.306;8.636;2022-12-29T01:04:26;99987.64;;;8.87;85.39
25944;BME280;13742;49.306;8.636;2022-12-29T01:05:26;99990.22;;;8.86;85.31
25944;BME280;13742;49.306;8.636;2022-12-29T01:06:26;99987.44;;;8.89;85.73
25944;BME280;13742;49.306;8.636;2022-12-29T01:07:26;99994.02;;;8.91;86.02
25944;BME280;13742;49.306;8.636;2022-12-29T01:08:27;99993.70;;;8.94;86.17
25944;BME280;13742;49.306;8.636;2022-12-29T01:09:31;99997.23;;;8.97;86.08
25944;BME280;13742;49.306;8.636;2022-12-29T01:10:26;99997.20;;;9.00;86.11
25944;BME280;13742;49.306;8.636;2022-12-29T01:11:26;99997.72;;;9.00;85.97
25944;BME280;13742;49.306;8.636;2022-12-29T01:12:33;99999.91;;;8.99;86.14
25944;BME280;13742;49.306;8.636;2022-12-29T01:13:26;99995.52;;;9.01;86.51
25944;BME280;13742;49.306;8.636;2022-12-29T01:14:26;99993.48;;;9.01;86.44
25944;BME280;13742;49.306;8.636;2022-12-29T01:15:26;99993.53;;;9.03;86.64
25944;BME280;13742;49.306;8.636;2022-12-29T01:16:26;99993.41;;;9.05;86.76
25944;BME280;13742;49.306;8.636;2022-12-29T01:17:26;99993.87;;;9.08;87.00
25944;BME280;13742;49.306;8.636;2022-12-29T01:18:26;99988.48;;;9.20;86.99
25944;BME280;13742;49.306;8.636;2022-12-29T01:19:26;99990.50;;;9.28;86.51
25944;BME280;13742;49.306;8.636;2022-12-29T01:20:28;99990.16;;;9.37;86.28
25944;BME280;13742;49.306;8.636;2022-12-29T01:21:26;99993.94;;;9.42;85.85
25944;BME280;13742;49.306;8.636;2022-12-29T01:22:26;99989.86;;;9.58;85.57
25944;BME280;13742;49.306;8.636;2022-12-29T01:23:27;99987.99;;;9.58;85.56
25944;BME280;13742;49.306;8.636;2022-12-29T01:24:26;99987.53;;;9.62;85.86
25944;BME280;13742;49.306;8.636;2022-12-29T01:25:26;99982.33;;;9.71;85.45
25944;BME280;13742;49.306;8.636;2022-12-29T01:26:26;99980.51;;;9.76;84.97
25944;BME280;13742;49.306;8.636;2022-12-29T01:27:26;99975.61;;;9.80;85.13
25944;BME280;13742;49.306;8.636;2022-12-29T01:28:26;99990.08;;;9.78;85.03
25944;BME280;13742;49.306;8.636;2022-12-29T01:29:26;99983.20;;;9.80;84.85
25944;BME280;13742;49.306;8.636;2022-12-29T01:30:26;99986.08;;;9.81;84.90
25944;BME280;13742;49.306;8.636;2022-12-29T01:31:26;99989.18;;;9.88;84.77
25944;BME280;13742;49.306;8.636;2022-12-29T01:32:26;99986.45;;;9.86;84.50
25944;BME280;13742;49.306;8.636;2022-12-29T01:33:26;99984.81;;;9.84;84.59
25944;BME280;13742;49.306;8.636;2022-12-29T01:34:26;99983.73;;;9.85;84.83
25944;BME280;13742;49.306;8.636;2022-12-29T01:35:26;99987.07;;;9.84;84.41
25944;BME280;13742;49.306;8.636;2022-12-29T01:36:26;99985.06;;;9.85;84.45
25944;BME280;13742;49.306;8.636;2022-12-29T01:37:26;99984.98;;;9.87;84.72
25944;BME280;13742;49.306;8.636;2022-12-29T01:38:26;99986.73;;;9.89;84.40
25944;BME280;13742;49.306;8.636;2022-12-29T01:39:26;99986.72;;;9.91;84.55
25944;BME280;13742;49.306;8.636;2022-12-29T01:40:26;99984.84;;;9.96;84.32
25944;BME280;13742;49.306;8.636;2022-12-29T01:41:26;99979.81;;;9.95;84.19
25944;BME280;13742;49.306;8.636;2022-12-29T01:42:26;99984.76;;;9.95;84.28
25944;BME280;13742;49.306;8.636;2022-12-29T01:45:26;99986.43;;;9.99;84.32
25944;BME280;13742;49.306;8.636;2022-12-29T01:46:30;99982.86;;;10.00;84.36
25944;BME280;13742;49.306;8.636;2022-12-29T01:48:26;99988.05;;;10.09;83.93
25944;BME280;13742;49.306;8.636;2022-12-29T01:49:26;99984.41;;;10.08;83.82
25944;BME280;13742;49.306;8.636;2022-12-29T01:50:30;99980.32;;;10.07;83.86
25944;BME280;13742;49.306;8.636;2022-12-29T01:51:26;99984.28;;;10.07;83.98
25944;BME280;13742;49.306;8.636;2022-12-29T01:52:26;99987.69;;;10.07;84.11
25944;BME280;13742;49.306;8.636;2022-12-29T01:53:27;99983.62;;;10.10;84.33
25944;BME280;13742;49.306;8.636;2022-12-29T01:54:28;99980.38;;;10.10;84.07
25944;BME280;13742;49.306;8.636;2022-12-29T01:55:30;99978.80;;;10.11;84.16
25944;BME280;13742;49.306;8.636;2022-12-29T01:56:26;99977.20;;;10.14;84.11
25944;BME280;13742;49.306;8.636;2022-12-29T01:57:31;99970.64;;;10.13;84.05
25944;BME280;13742;49.306;8.636;2022-12-29T01:58:27;99979.85;;;10.28;83.92
25944;BME280;13742;49.306;8.636;2022-12-29T01:59:27;99986.77;;;10.30;83.64
25944;BME280;13742;49.306;8.636;2022-12-29T02:00:26;99989.86;;;10.32;83.84
25944;BME280;13742;49.306;8.636;2022-12-29T02:01:26;99980.48;;;10.37;84.96
25944;BME280;13742;49.306;8.636;2022-12-29T02:02:26;99987.77;;;10.35;85.38
25944;BME280;13742;49.306;8.636;2022-12-29T02:03:26;99978.05;;;10.35;86.80
25944;BME280;13742;49.306;8.636;2022-12-29T02:04:26;99982.97;;;10.37;87.29
25944;BME280;13742;49.306;8.636;2022-12-29T02:05:39;99975.32;;;10.42;87.46
25944;BME280;13742;49.306;8.636;2022-12-29T02:06:31;99969.89;;;10.41;87.80
25944;BME280;13742;49.306;8.636;2022-12-29T02:07:27;99974.20;;;10.41;88.32
25944;BME280;13742;49.306;8.636;2022-12-29T02:08:26;99976.16;;;10.46;88.99
25944;BME280;13742;49.306;8.636;2022-12-29T02:09:26;99965.28;;;10.44;88.66
25944;BME280;13742;49.306;8.636;2022-12-29T02:10:27;99973.20;;;10.41;88.94
25944;BME280;13742;49.306;8.636;2022-12-29T02:11:27;99970.03;;;10.43;89.32
25944;BME280;13742;49.306;8.636;2022-12-29T02:12:26;99970.72;;;10.41;89.30
25944;BME280;13742;49.306;8.636;2022-12-29T02:13:26;99978.47;;;10.37;89.24
25944;BME280;13742;49.306;8.636;2022-12-29T02:14:26;99975.66;;;10.36;89.29
25944;BME280;13742;49.306;8.636;2022-12-29T02:17:34;99970.31;;;10.39;89.44
25944;BME280;13742;49.306;8.636;2022-12-29T02:21:31;99959.23;;;10.38;89.89
25944;BME280;13742;49.306;8.636;2022-12-29T02:26:34;99967.11;;;10.39;89.58
25944;BME280;13742;49.306;8.636;2022-12-29T02:29:31;99960.63;;;10.36;89.98
25944;BME280;13742;49.306;8.636;2022-12-29T02:30:32;99967.77;;;10.35;89.42
25944;BME280;13742;49.306;8.636;2022-12-29T02:31:28;99969.78;;;10.35;89.93
25944;BME280;13742;49.306;8.636;2022-12-29T02:34:34;99975.51;;;10.34;90.30
25944;BME280;13742;49.306;8.636;2022-12-29T02:35:33;99975.34;;;10.35;89.95
25944;BME280;13742;49.306;8.636;2022-12-29T02:36:37;99974.15;;;10.32;89.76
25944;BME280;13742;49.306;8.636;2022-12-29T02:38:33;99976.02;;;10.30;90.50
25944;BME280;13742;49.306;8.636;2022-12-29T02:41:31;99969.49;;;10.31;90.48
25944;BME280;13742;49.306;8.636;2022-12-29T02:42:33;99967.02;;;10.31;90.09
25944;BME280;13742;49.306;8.636;2022-12-29T02:43:31;99960.67;;;10.30;89.94
25944;BME280;13742;49.306;8.636;2022-12-29T02:46:34;99964.91;;;10.30;90.91
25944;BME280;13742;49.306;8.636;2022-12-29T02:47:32;99960.48;;;10.28;90.98
25944;BME280;13742;49.306;8.636;2022-12-29T02:49:32;99962.03;;;10.28;91.81
25944;BME280;13742;49.306;8.636;2022-12-29T02:50:27;99962.93;;;10.29;92.76
25944;BME280;13742;49.306;8.636;2022-12-29T02:51:27;99956.75;;;10.28;93.13
25944;BME280;13742;49.306;8.636;2022-12-29T02:52:30;99954.13;;;10.27;93.46
25944;BME280;13742;49.306;8.636;2022-12-29T02:53:32;99952.99;;;10.25;93.58
25944;BME280;13742;49.306;8.636;2022-12-29T02:54:31;99951.22;;;10.23;93.76
25944;BME280;13742;49.306;8.636;2022-12-29T02:55:26;99954.11;;;10.23;94.31
25944;BME280;13742;49.306;8.636;2022-12-29T02:56:26;99950.66;;;10.21;94.51
25944;BME280;13742;49.306;8.636;2022-12-29T02:57:28;99956.83;;;10.21;94.98
25944;BME280;13742;49.306;8.636;2022-12-29T02:58:26;99955.59;;;10.26;95.70
25944;BME280;13742;49.306;8.636;2022-12-29T02:59:26;99952.13;;;10.22;94.79
25944;BME280;13742;49.306;8.636;2022-12-29T03:00:26;99954.22;;;10.20;94.94
25944;BME280;13742;49.306;8.636;2022-12-29T03:02:30;99949.98;;;10.17;94.57
25944;BME280;13742;49.306;8.636;2022-12-29T03:03:48;99950.92;;;10.14;94.97
25944;BME280;13742;49.306;8.636;2022-12-29T03:04:30;99945.88;;;10.12;95.65
25944;BME280;13742;49.306;8.636;2022-12-29T03:05:49;99950.27;;;10.11;95.22
25944;BME280;13742;49.306;8.636;2022-12-29T03:06:40;99948.25;;;10.09;95.62
25944;BME280;13742;49.306;8.636;2022-12-29T03:07:32;99947.77;;;10.07;95.92
25944;BME280;13742;49.306;8.636;2022-12-29T03:11:33;99933.66;;;10.03;96.60
25944;BME280;13742;49.306;8.636;2022-12-29T03:12:36;99936.23;;;10.02;96.06
25944;BME280;13742;49.306;8.636;2022-12-29T03:15:34;99927.68;;;10.03;95.47
25944;BME280;13742;49.306;8.636;2022-12-29T03:17:28;99933.85;;;10.02;95.80
25944;BME280;13742;49.306;8.636;2022-12-29T03:18:33;99931.29;;;10.02;96.21
25944;BME280;13742;49.306;8.636;2022-12-29T03:20:28;99933.78;;;10.00;97.06
25944;BME280;13742;49.306;8.636;2022-12-29T03:21:42;99934.61;;;10.00;97.23
25944;BME280;13742;49.306;8.636;2022-12-29T03:22:27;99932.00;;;10.00;97.43
25944;BME280;13742;49.306;8.636;2022-12-29T03:23:26;99932.91;;;10.01;97.90
25944;BME280;13742;49.306;8.636;2022-12-29T03:24:27;99936.97;;;10.01;97.77
25944;BME280;13742;49.306;8.636;2022-12-29T03:26:26;99924.52;;;10.00;96.88
25944;BME280;13742;49.306;8.636;2022-12-29T03:27:30;99930.14;;;9.99;97.02
25944;BME280;13742;49.306;8.636;2022-12-29T03:28:31;99927.50;;;9.99;96.58
25944;BME280;13742;49.306;8.636;2022-12-29T03:29:27;99921.32;;;9.98;97.16
25944;BME280;13742;49.306;8.636;2022-12-29T03:30:26;99918.53;;;10.00;96.95
25944;BME280;13742;49.306;8.636;2022-12-29T03:31:26;99914.83;;;10.02;96.91
25944;BME280;13742;49.306;8.636;2022-12-29T03:32:35;99917.23;;;10.01;96.10
25944;BME280;13742;49.306;8.636;2022-12-29T03:33:27;99914.09;;;10.01;96.23
25944;BME280;13742;49.306;8.636;2022-12-29T03:34:26;99913.16;;;10.01;96.43
25944;BME280;13742;49.306;8.636;2022-12-29T03:35:27;99909.70;;;10.00;96.20
25944;BME280;13742;49.306;8.636;2022-12-29T03:36:27;99910.91;;;10.01;96.65
25944;BME280;13742;49.306;8.636;2022-12-29T03:37:28;99900.69;;;9.99;96.71
25944;BME280;13742;49.306;8.636;2022-12-29T03:38:33;99897.20;;;10.00;97.21
25944;BME280;13742;49.306;8.636;2022-12-29T03:39:26;99892.22;;;10.00;97.41
25944;BME280;13742;49.306;8.636;2022-12-29T03:40:26;99901.97;;;10.02;97.23
25944;BME280;13742;49.306;8.636;2022-12-29T03:41:27;99894.16;;;10.02;97.22
25944;BME280;13742;49.306;8.636;2022-12-29T03:42:27;99899.16;;;10.02;96.66
25944;BME280;13742;49.306;8.636;2022-12-29T03:43:26;99894.45;;;10.03;97.12
25944;BME280;13742;49.306;8.636;2022-12-29T03:44:31;99894.82;;;10.02;97.03
25944;BME280;13742;49.306;8.636;2022-12-29T03:45:26;99897.08;;;10.04;97.40
25944;BME280;13742;49.306;8.636;2022-12-29T03:46:26;99895.39;;;10.05;97.07
25944;BME280;13742;49.306;8.636;2022-12-29T03:47:26;99895.55;;;10.05;96.60
25944;BME280;13742;49.306;8.636;2022-12-29T03:48:26;99891.63;;;10.04;96.28
25944;BME280;13742;49.306;8.636;2022-12-29T03:49:26;99888.68;;;10.05;96.59
25944;BME280;13742;49.306;8.636;2022-12-29T03:50:26;99885.66;;;10.05;96.91
25944;BME280;13742;49.306;8.636;2022-12-29T03:51:26;99890.82;;;10.06;96.64
25944;BME280;13742;49.306;8.636;2022-12-29T03:52:26;99885.60;;;10.05;96.65
25944;BME280;13742;49.306;8.636;2022-12-29T03:53:26;99882.06;;;10.07;96.44
25944;BME280;13742;49.306;8.636;2022-12-29T03:54:26;99879.50;;;10.05;95.98
25944;BME280;13742;49.306;8.636;2022-12-29T03:55:26;99879.92;;;10.07;95.66
25944;BME280;13742;49.306;8.636;2022-12-29T03:56:26;99876.13;;;10.08;95.51
25944;BME280;13742;49.306;8.636;2022-12-29T03:57:26;99872.75;;;10.06;95.28
25944;BME280;13742;49.306;8.636;2022-12-29T03:58:26;99876.05;;;10.06;94.95
25944;BME280;13742;49.306;8.636;2022-12-29T03:59:26;99870.00;;;10.06;94.83
25944;BME280;13742;49.306;8.636;2022-12-29T04:00:26;99861.15;;;10.06;94.90
25944;BME280;13742;49.306;8.636;2022-12-29T04:01:26;99864.77;;;10.06;94.74
25944;BME280;13742;49.306;8.636;2022-12-29T04:02:26;99864.58;;;10.07;94.40
25944;BME280;13742;49.306;8.636;2022-12-29T04:03:26;99862.02;;;10.08;93.97
25944;BME280;13742;49.306;8.636;2022-12-29T04:04:26;99858.42;;;10.07;93.67
25944;BME280;13742;49.306;8.636;2022-12-29T04:05:26;99863.11;;;10.08;93.25
25944;BME280;13742;49.306;8.636;2022-12-29T04:06:26;99862.27;;;10.10;92.69
25944;BME280;13742;49.306;8.636;2022-12-29T04:07:26;99860.55;;;10.09;92.75
25944;BME280;13742;49.306;8.636;2022-12-29T04:08:26;99857.78;;;10.11;92.81
25944;BME280;13742;49.306;8.636;2022-12-29T04:09:26;99858.05;;;10.14;92.97
25944;BME280;13742;49.306;8.636;2022-12-29T04:10:26;99852.71;;;10.14;92.21
25944;BME280;13742;49.306;8.636;2022-12-29T04:11:26;99854.47;;;10.14;92.07
25944;BME280;13742;49.306;8.636;2022-12-29T04:12:26;99856.81;;;10.16;91.78
25944;BME280;13742;49.306;8.636;2022-12-29T04:13:26;99859.44;;;10.15;91.58
25944;BME280;13742;49.306;8.636;2022-12-29T04:14:26;99856.78;;;10.17;91.59
25944;BME280;13742;49.306;8.636;2022-12-29T04:15:26;99859.13;;;10.26;90.35
25944;BME280;13742;49.306;8.636;2022-12-29T04:16:26;99857.56;;;10.28;90.15
25944;BME280;13742;49.306;8.636;2022-12-29T04:17:26;99855.15;;;10.25;90.30
25944;BME280;13742;49.306;8.636;2022-12-29T04:18:26;99848.82;;;10.25;90.49
25944;BME280;13742;49.306;8.636;2022-12-29T04:19:26;99847.34;;;10.25;90.51
25944;BME280;13742;49.306;8.636;2022-12-29T04:20:31;99844.28;;;10.25;90.25
25944;BME280;13742;49.306;8.636;2022-12-29T04:21:26;99840.47;;;10.25;90.25
25944;BME280;13742;49.306;8.636;2022-12-29T04:22:26;99842.68;;;10.26;90.25
25944;BME280;13742;49.306;8.636;2022-12-29T04:23:27;99846.55;;;10.27;90.30
25944;BME280;13742;49.306;8.636;2022-12-29T04:24:26;99845.25;;;10.25;90.30
25944;BME280;13742;49.306;8.636;2022-12-29T04:25:26;99848.00;;;10.24;90.31
25944;BME280;13742;49.306;8.636;2022-12-29T04:26:26;99842.37;;;10.26;90.22
25944;BME280;13742;49.306;8.636;2022-12-29T04:27:26;99842.83;;;10.28;90.04
25944;BME280;13742;49.306;8.636;2022-12-29T04:28:26;99840.68;;;10.28;90.09
25944;BME280;13742;49.306;8.636;2022-12-29T04:29:26;99845.84;;;10.26;90.22
25944;BME280;13742;49.306;8.636;2022-12-29T04:30:26;99850.58;;;10.28;89.95
25944;BME280;13742;49.306;8.636;2022-12-29T04:31:26;99847.35;;;10.28;89.97
25944;BME280;13742;49.306;8.636;2022-12-29T04:32:26;99843.63;;;10.29;89.52
25944;BME280;13742;49.306;8.636;2022-12-29T04:33:26;99845.14;;;10.32;88.88
25944;BME280;13742;49.306;8.636;2022-12-29T04:34:26;99845.02;;;10.35;88.37
25944;BME280;13742;49.306;8.636;2022-12-29T04:35:26;99840.41;;;10.35;88.18
25944;BME280;13742;49.306;8.636;2022-12-29T04:36:26;99841.12;;;10.37;87.88
25944;BME280;13742;49.306;8.636;2022-12-29T04:37:26;99842.02;;;10.38;87.72
25944;BME280;13742;49.306;8.636;2022-12-29T04:38:26;99841.30;;;10.42;87.08
25944;BME280;13742;49.306;8.636;2022-12-29T04:39:26;99840.10;;;10.46;87.06
25944;BME280;13742;49.306;8.636;2022-12-29T04:40:26;99840.63;;;10.52;86.42
25944;BME280;13742;49.306;8.636;2022-12-29T04:41:26;99848.16;;;10.57;85.44
25944;BME280;13742;49.306;8.636;2022-12-29T04:42:26;99858.42;;;10.78;83.26
25944;BME280;13742;49.306;8.636;2022-12-29T04:43:26;99849.20;;;10.83;82.94
25944;BME280;13742;49.306;8.636;2022-12-29T04:44:26;99842.08;;;10.78;83.40
25944;BME280;13742;49.306;8.636;2022-12-29T04:45:26;99845.26;;;10.76;83.96
25944;BME280;13742;49.306;8.636;2022-12-29T04:46:26;99845.80;;;10.77;83.75
25944;BME280;13742;49.306;8.636;2022-12-29T04:47:26;99847.92;;;10.75;83.75
25944;BME280;13742;49.306;8.636;2022-12-29T04:48:26;99833.69;;;10.77;83.60
25944;BME280;13742;49.306;8.636;2022-12-29T04:49:26;99842.45;;;10.76;83.46
25944;BME280;13742;49.306;8.636;2022-12-29T04:50:26;99838.95;;;10.83;82.83
25944;BME280;13742;49.306;8.636;2022-12-29T04:51:26;99848.09;;;10.83;82.80
25944;BME280;13742;49.306;8.636;2022-12-29T04:52:26;99845.03;;;10.87;82.47
25944;BME280;13742;49.306;8.636;2022-12-29T04:53:26;99841.72;;;10.84;82.88
25944;BME280;13742;49.306;8.636;2022-12-29T04:54:26;99846.78;;;10.84;82.97
25944;BME280;13742;49.306;8.636;2022-12-29T04:55:26;99848.36;;;10.82;83.15
25944;BME280;13742;49.306;8.636;2022-12-29T04:56:26;99845.20;;;10.85;82.35
25944;BME280;13742;49.306;8.636;2022-12-29T04:57:26;99847.85;;;10.84;82.37
25944;BME280;13742;49.306;8.636;2022-12-29T04:58:26;99847.77;;;10.86;81.87
25944;BME280;13742;49.306;8.636;2022-12-29T04:59:26;99849.50;;;10.92;81.55
25944;BME280;13742;49.306;8.636;2022-12-29T05:00:26;99850.44;;;10.93;81.79
25944;BME280;13742;49.306;8.636;2022-12-29T05:01:26;99839.60;;;10.94;81.17
25944;BME280;13742;49.306;8.636;2022-12-29T05:02:26;99844.24;;;10.94;81.06
25944;BME280;13742;49.306;8.636;2022-12-29T05:03:26;99840.55;;;10.94;81.36
25944;BME280;13742;49.306;8.636;2022-12-29T05:04:26;99846.08;;;10.95;80.98
25944;BME280;13742;49.306;8.636;2022-12-29T05:05:26;99842.14;;;10.95;81.55
25944;BME280;13742;49.306;8.636;2022-12-29T05:06:26;99842.67;;;10.93;81.47
25944;BME280;13742;49.306;8.636;2022-12-29T05:07:26;99851.73;;;10.94;81.56
25944;BME280;13742;49.306;8.636;2022-12-29T05:08:26;99856.89;;;10.93;81.67
25944;BME280;13742;49.306;8.636;2022-12-29T05:09:26;99857.80;;;10.92;81.43
25944;BME280;13742;49.306;8.636;2022-12-29T05:10:26;99860.89;;;10.95;81.33
25944;BME280;13742;49.306;8.636;2022-12-29T05:11:26;99855.66;;;10.97;80.90
25944;BME280;13742;49.306;8.636;2022-12-29T05:12:29;99857.16;;;10.96;81.27
25944;BME280;13742;49.306;8.636;2022-12-29T05:13:26;99860.34;;;10.95;81.30
25944;BME280;13742;49.306;8.636;2022-12-29T05:14:26;99853.89;;;10.95;81.10
25944;BME280;13742;49.306;8.636;2022-12-29T05:15:26;99859.97;;;10.93;81.41
25944;BME280;13742;49.306;8.636;2022-12-29T05:16:26;99852.88;;;10.93;81.57
25944;BME280;13742;49.306;8.636;2022-12-29T05:17:26;99855.08;;;10.93;81.37
25944;BME280;13742;49.306;8.636;2022-12-29T05:18:26;99853.80;;;10.94;81.42
25944;BME280;13742;49.306;8.636;2022-12-29T05:19:26;99852.86;;;10.92;81.53
25944;BME280;13742;49.306;8.636;2022-12-29T05:20:26;99854.86;;;10.91;81.44
25944;BME280;13742;49.306;8.636;2022-12-29T05:21:26;99861.27;;;10.92;81.63
25944;BME280;13742;49.306;8.636;2022-12-29T05:22:26;99856.33;;;10.92;81.27
25944;BME280;13742;49.306;8.636;2022-12-29T05:23:26;99856.05;;;10.93;81.21
25944;BME280;13742;49.306;8.636;2022-12-29T05:24:26;99858.14;;;10.97;80.43
25944;BME280;13742;49.306;8.636;2022-12-29T05:25:26;99848.74;;;10.97;80.70
25944;BME280;13742;49.306;8.636;2022-12-29T05:26:26;99851.94;;;10.97;80.86
25944;BME280;13742;49.306;8.636;2022-12-29T05:27:26;99849.83;;;10.96;80.80
25944;BME280;13742;49.306;8.636;2022-12-29T05:28:26;99848.58;;;10.97;80.89
25944;BME280;13742;49.306;8.636;2022-12-29T05:29:26;99846.42;;;10.96;81.01
25944;BME280;13742;49.306;8.636;2022-12-29T05:30:26;99847.92;;;10.95;80.83
25944;BME280;13742;49.306;8.636;2022-12-29T05:31:26;99844.02;;;10.98;80.65
25944;BME280;13742;49.306;8.636;2022-12-29T05:32:26;99847.38;;;10.99;80.46
25944;BME280;13742;49.306;8.636;2022-12-29T05:33:26;99848.73;;;11.00;80.38
25944;BME280;13742;49.306;8.636;2022-12-29T05:34:26;99852.05;;;11.05;80.07
25944;BME280;13742;49.306;8.636;2022-12-29T05:35:26;99843.33;;;11.12;79.68
25944;BME280;13742;49.306;8.636;2022-12-29T05:36:26;99850.52;;;11.15;79.37
25944;BME280;13742;49.306;8.636;2022-12-29T05:37:26;99840.00;;;11.10;80.00
25944;BME280;13742;49.306;8.636;2022-12-29T05:38:26;99837.83;;;11.13;79.64
25944;BME280;13742;49.306;8.636;2022-12-29T05:39:26;99837.13;;;11.13;79.72
25944;BME280;13742;49.306;8.636;2022-12-29T05:40:26;99837.25;;;11.11;79.81
25944;BME280;13742;49.306;8.636;2022-12-29T05:41:26;99834.91;;;11.09;79.88
25944;BME280;13742;49.306;8.636;2022-12-29T05:42:26;99833.23;;;11.07;80.17
25944;BME280;13742;49.306;8.636;2022-12-29T05:43:26;99837.29;;;11.05;80.24
25944;BME280;13742;49.306;8.636;2022-12-29T05:44:26;99842.72;;;11.04;80.39
25944;BME280;13742;49.306;8.636;2022-12-29T05:45:26;99844.79;;;11.02;80.16
25944;BME280;13742;49.306;8.636;2022-12-29T05:46:26;99843.81;;;11.03;80.24
25944;BME280;13742;49.306;8.636;2022-12-29T05:47:26;99838.67;;;11.01;80.50
25944;BME280;13742;49.306;8.636;2022-12-29T05:48:26;99845.58;;;10.99;80.55
25944;BME280;13742;49.306;8.636;2022-12-29T05:49:26;99848.48;;;10.98;80.69
25944;BME280;13742;49.306;8.636;2022-12-29T05:50:26;99849.06;;;11.00;80.35
25944;BME280;13742;49.306;8.636;2022-12-29T05:51:26;99843.25;;;10.99;80.42